sensor_id;sensor_type;location;lat;lon;timestamp;P1;durP1;ratioP1;P2;durP2;ratioP2
11305;SDS011;5708;50.660;6.778;2023-03-16T00:00:34;6.55;;;2.38;;
11305;SDS011;5708;50.660;6.778;2023-03-16T00:02:59;4.73;;;2.10;;
11305;SDS011;5708;50.660;6.778;2023-03-16T00:05:24;4.35;;;2.30;;
11305;SDS011;5708;50.660;6.778;2023-03-16T00:07:50;5.90;;;2.20;;
11305;SDS011;5708;50.660;6.778;2023-03-16T00:10:15;4.78;;;2.00;;
11305;SDS011;5708;50.660;6.778;2023-03-16T00:12:40;4.68;;;1.85;;
11305;SDS011;5708;50.660;6.778;2023-03-16T00:15:09;4.47;;;1.92;;
11305;SDS011;5708;50.660;6.778;2023-03-16T00:17:35;4.55;;;2.13;;
11305;SDS011;5708;50.660;6.778;2023-03-16T00:20:00;4.37;;;2.20;;
11305;SDS011;5708;50.660;6.778;2023-03-16T00:22:30;4.60;;;2.05;;
11305;SDS011;5708;50.660;6.778;2023-03-16T00:24:55;5.70;;;2.13;;
11305;SDS011;5708;50.660;6.778;2023-03-16T00:27:21;5.22;;;2.47;;
11305;SDS011;5708;50.660;6.778;2023-03-16T00:29:47;5.60;;;2.10;;
11305;SDS011;5708;50.660;6.778;2023-03-16T00:32:17;6.45;;;2.40;;
11305;SDS011;5708;50.660;6.778;2023-03-16T00:34:43;4.63;;;2.35;;
11305;SDS011;5708;50.660;6.778;2023-03-16T00:37:09;5.13;;;2.28;;
11305;SDS011;5708;50.660;6.778;2023-03-16T00:39:37;5.13;;;2.30;;
11305;SDS011;5708;50.660;6.778;2023-03-16T00:42:02;6.70;;;2.28;;
11305;SDS011;5708;50.660;6.778;2023-03-16T00:44:28;5.10;;;2.25;;
11305;SDS011;5708;50.660;6.778;2023-03-16T00:46:53;6.20;;;2.30;;
11305;SDS011;5708;50.660;6.778;2023-03-16T00:49:18;4.27;;;2.27;;
11305;SDS011;5708;50.660;6.778;2023-03-16T00:51:43;4.87;;;2.37;;
11305;SDS011;5708;50.660;6.778;2023-03-16T00:54:10;3.83;;;2.35;;
11305;SDS011;5708;50.660;6.778;2023-03-16T00:56:35;4.03;;;2.13;;
11305;SDS011;5708;50.660;6.778;2023-03-16T00:59:00;3.50;;;2.13;;
11305;SDS011;5708;50.660;6.778;2023-03-16T01:01:25;5.10;;;2.20;;
11305;SDS011;5708;50.660;6.778;2023-03-16T01:03:51;3.45;;;2.22;;
11305;SDS011;5708;50.660;6.778;2023-03-16T01:06:16;5.28;;;2.45;;
11305;SDS011;5708;50.660;6.778;2023-03-16T01:08:44;4.60;;;2.38;;
11305;SDS011;5708;50.660;6.778;2023-03-16T01:11:11;3.33;;;2.00;;
11305;SDS011;5708;50.660;6.778;2023-03-16T01:13:37;4.40;;;2.20;;
11305;SDS011;5708;50.660;6.778;2023-03-16T01:16:02;6.32;;;2.20;;
11305;SDS011;5708;50.660;6.778;2023-03-16T01:18:28;5.88;;;2.97;;
11305;SDS011;5708;50.660;6.778;2023-03-16T01:20:53;4.63;;;2.22;;
11305;SDS011;5708;50.660;6.778;2023-03-16T01:23:19;4.00;;;2.30;;
11305;SDS011;5708;50.660;6.778;2023-03-16T01:25:44;5.20;;;2.20;;
11305;SDS011;5708;50.660;6.778;2023-03-16T01:28:20;3.53;;;2.03;;
11305;SDS011;5708;50.660;6.778;2023-03-16T01:30:48;5.30;;;2.40;;
11305;SDS011;5708;50.660;6.778;2023-03-16T01:33:13;5.05;;;2.10;;
11305;SDS011;5708;50.660;6.778;2023-03-16T01:35:39;6.10;;;2.58;;
11305;SDS011;5708;50.660;6.778;2023-03-16T01:38:04;4.28;;;2.20;;
11305;SDS011;5708;50.660;6.778;2023-03-16T01:40:29;4.17;;;1.93;;
11305;SDS011;5708;50.660;6.778;2023-03-16T01:43:02;5.05;;;2.10;;
11305;SDS011;5708;50.660;6.778;2023-03-16T01:48:12;5.55;;;2.33;;
11305;SDS011;5708;50.660;6.778;2023-03-16T01:50:38;5.20;;;2.17;;
11305;SDS011;5708;50.660;6.778;2023-03-16T01:53:04;4.82;;;1.90;;
11305;SDS011;5708;50.660;6.778;2023-03-16T01:55:29;5.32;;;2.10;;
11305;SDS011;5708;50.660;6.778;2023-03-16T01:57:55;5.07;;;2.10;;
11305;SDS011;5708;50.660;6.778;2023-03-16T02:00:20;4.90;;;2.10;;
11305;SDS011;5708;50.660;6.778;2023-03-16T02:02:54;3.30;;;1.90;;
11305;SDS011;5708;50.660;6.778;2023-03-16T02:05:25;3.50;;;2.03;;
11305;SDS011;5708;50.660;6.778;2023-03-16T02:07:55;4.10;;;1.98;;
11305;SDS011;5708;50.660;6.778;2023-03-16T02:10:23;5.07;;;2.03;;
11305;SDS011;5708;50.660;6.778;2023-03-16T02:12:49;3.65;;;2.00;;
11305;SDS011;5708;50.660;6.778;2023-03-16T02:15:14;5.68;;;1.85;;
11305;SDS011;5708;50.660;6.778;2023-03-16T02:17:40;4.30;;;1.90;;
11305;SDS011;5708;50.660;6.778;2023-03-16T02:22:50;3.53;;;1.88;;
11305;SDS011;5708;50.660;6.778;2023-03-16T02:25:20;5.22;;;1.98;;
11305;SDS011;5708;50.660;6.778;2023-03-16T02:28:04;4.00;;;2.10;;
11305;SDS011;5708;50.660;6.778;2023-03-16T02:30:32;3.35;;;1.88;;
11305;SDS011;5708;50.660;6.778;2023-03-16T02:32:57;5.43;;;2.17;;
11305;SDS011;5708;50.660;6.778;2023-03-16T02:35:23;4.07;;;1.80;;
11305;SDS011;5708;50.660;6.778;2023-03-16T02:37:48;2.70;;;1.77;;
11305;SDS011;5708;50.660;6.778;2023-03-16T02:42:46;4.95;;;2.10;;
11305;SDS011;5708;50.660;6.778;2023-03-16T02:45:12;3.67;;;2.10;;
11305;SDS011;5708;50.660;6.778;2023-03-16T02:47:39;5.60;;;2.28;;
11305;SDS011;5708;50.660;6.778;2023-03-16T02:50:05;3.65;;;2.00;;
11305;SDS011;5708;50.660;6.778;2023-03-16T02:52:32;6.10;;;2.10;;
11305;SDS011;5708;50.660;6.778;2023-03-16T02:54:58;5.10;;;2.00;;
11305;SDS011;5708;50.660;6.778;2023-03-16T02:57:23;4.63;;;2.20;;
11305;SDS011;5708;50.660;6.778;2023-03-16T02:59:48;6.80;;;2.25;;
11305;SDS011;5708;50.660;6.778;2023-03-16T03:02:13;4.10;;;2.30;;
11305;SDS011;5708;50.660;6.778;2023-03-16T03:04:39;2.55;;;1.85;;
11305;SDS011;5708;50.660;6.778;2023-03-16T03:07:04;6.22;;;2.22;;
11305;SDS011;5708;50.660;6.778;2023-03-16T03:09:30;5.38;;;2.10;;
11305;SDS011;5708;50.660;6.778;2023-03-16T03:11:56;4.05;;;2.40;;
11305;SDS011;5708;50.660;6.778;2023-03-16T03:14:22;3.60;;;1.80;;
11305;SDS011;5708;50.660;6.778;2023-03-16T03:16:47;5.50;;;2.40;;
11305;SDS011;5708;50.660;6.778;2023-03-16T03:19:12;3.87;;;2.10;;
11305;SDS011;5708;50.660;6.778;2023-03-16T03:21:38;4.25;;;2.22;;
11305;SDS011;5708;50.660;6.778;2023-03-16T03:24:04;3.20;;;2.03;;
11305;SDS011;5708;50.660;6.778;2023-03-16T03:26:29;5.60;;;2.40;;
11305;SDS011;5708;50.660;6.778;2023-03-16T03:28:55;4.73;;;2.37;;
11305;SDS011;5708;50.660;6.778;2023-03-16T03:31:21;4.38;;;1.85;;
11305;SDS011;5708;50.660;6.778;2023-03-16T03:33:46;6.00;;;2.53;;
11305;SDS011;5708;50.660;6.778;2023-03-16T03:36:12;5.50;;;2.42;;
11305;SDS011;5708;50.660;6.778;2023-03-16T03:38:37;4.68;;;2.70;;
11305;SDS011;5708;50.660;6.778;2023-03-16T03:41:03;4.50;;;2.50;;
11305;SDS011;5708;50.660;6.778;2023-03-16T03:43:28;4.88;;;2.22;;
11305;SDS011;5708;50.660;6.778;2023-03-16T03:46:00;4.03;;;2.15;;
11305;SDS011;5708;50.660;6.778;2023-03-16T03:48:26;5.10;;;2.33;;
11305;SDS011;5708;50.660;6.778;2023-03-16T03:50:51;3.95;;;2.50;;
11305;SDS011;5708;50.660;6.778;2023-03-16T03:53:17;4.97;;;2.17;;
11305;SDS011;5708;50.660;6.778;2023-03-16T03:55:42;5.35;;;2.42;;
11305;SDS011;5708;50.660;6.778;2023-03-16T03:58:07;6.47;;;2.53;;
11305;SDS011;5708;50.660;6.778;2023-03-16T04:00:32;4.80;;;2.35;;
11305;SDS011;5708;50.660;6.778;2023-03-16T04:02:58;3.95;;;2.13;;
11305;SDS011;5708;50.660;6.778;2023-03-16T04:05:23;4.90;;;2.50;;
11305;SDS011;5708;50.660;6.778;2023-03-16T04:07:51;6.10;;;2.30;;
11305;SDS011;5708;50.660;6.778;2023-03-16T04:10:19;5.32;;;2.45;;
11305;SDS011;5708;50.660;6.778;2023-03-16T04:12:44;5.07;;;2.45;;
11305;SDS011;5708;50.660;6.778;2023-03-16T04:15:10;5.43;;;3.20;;
11305;SDS011;5708;50.660;6.778;2023-03-16T04:17:36;6.20;;;2.40;;
11305;SDS011;5708;50.660;6.778;2023-03-16T04:20:01;4.73;;;2.10;;
11305;SDS011;5708;50.660;6.778;2023-03-16T04:22:30;4.95;;;2.50;;
11305;SDS011;5708;50.660;6.778;2023-03-16T04:24:55;6.53;;;2.70;;
11305;SDS011;5708;50.660;6.778;2023-03-16T04:27:20;3.77;;;2.30;;
11305;SDS011;5708;50.660;6.778;2023-03-16T04:29:46;4.73;;;2.60;;
11305;SDS011;5708;50.660;6.778;2023-03-16T04:32:11;4.03;;;2.30;;
11305;SDS011;5708;50.660;6.778;2023-03-16T04:34:36;6.10;;;2.72;;
11305;SDS011;5708;50.660;6.778;2023-03-16T04:37:03;5.53;;;2.70;;
11305;SDS011;5708;50.660;6.778;2023-03-16T04:39:28;6.50;;;2.60;;
11305;SDS011;5708;50.660;6.778;2023-03-16T04:41:53;6.50;;;2.93;;
11305;SDS011;5708;50.660;6.778;2023-03-16T04:44:19;4.00;;;2.40;;
11305;SDS011;5708;50.660;6.778;2023-03-16T04:46:44;5.63;;;2.65;;
11305;SDS011;5708;50.660;6.778;2023-03-16T04:49:09;5.63;;;2.90;;
11305;SDS011;5708;50.660;6.778;2023-03-16T04:51:35;4.13;;;2.35;;
11305;SDS011;5708;50.660;6.778;2023-03-16T04:54:02;5.32;;;2.55;;
11305;SDS011;5708;50.660;6.778;2023-03-16T04:56:27;6.05;;;2.75;;
11305;SDS011;5708;50.660;6.778;2023-03-16T04:58:52;4.77;;;2.53;;
11305;SDS011;5708;50.660;6.778;2023-03-16T05:01:17;5.27;;;2.40;;
11305;SDS011;5708;50.660;6.778;2023-03-16T05:03:43;5.65;;;2.53;;
11305;SDS011;5708;50.660;6.778;2023-03-16T05:06:08;5.43;;;2.45;;
11305;SDS011;5708;50.660;6.778;2023-03-16T05:08:34;5.43;;;2.65;;
11305;SDS011;5708;50.660;6.778;2023-03-16T05:10:59;5.47;;;2.90;;
11305;SDS011;5708;50.660;6.778;2023-03-16T05:13:25;4.55;;;2.60;;
11305;SDS011;5708;50.660;6.778;2023-03-16T05:15:50;4.50;;;2.60;;
11305;SDS011;5708;50.660;6.778;2023-03-16T05:18:17;6.38;;;3.20;;
11305;SDS011;5708;50.660;6.778;2023-03-16T05:20:43;5.57;;;2.85;;
11305;SDS011;5708;50.660;6.778;2023-03-16T05:23:09;5.28;;;3.17;;
11305;SDS011;5708;50.660;6.778;2023-03-16T05:25:35;5.32;;;3.28;;
11305;SDS011;5708;50.660;6.778;2023-03-16T05:28:00;6.97;;;2.80;;
11305;SDS011;5708;50.660;6.778;2023-03-16T05:30:26;6.37;;;3.23;;
11305;SDS011;5708;50.660;6.778;2023-03-16T05:32:51;6.73;;;3.30;;
11305;SDS011;5708;50.660;6.778;2023-03-16T05:35:16;7.43;;;3.13;;
11305;SDS011;5708;50.660;6.778;2023-03-16T05:37:41;5.65;;;3.00;;
11305;SDS011;5708;50.660;6.778;2023-03-16T05:40:08;6.50;;;3.50;;
11305;SDS011;5708;50.660;6.778;2023-03-16T05:42:44;4.90;;;2.80;;
11305;SDS011;5708;50.660;6.778;2023-03-16T05:45:10;6.60;;;3.30;;
11305;SDS011;5708;50.660;6.778;2023-03-16T05:47:36;5.38;;;3.00;;
11305;SDS011;5708;50.660;6.778;2023-03-16T05:50:02;7.27;;;3.33;;
11305;SDS011;5708;50.660;6.778;2023-03-16T05:52:27;8.60;;;3.47;;
11305;SDS011;5708;50.660;6.778;2023-03-16T05:54:52;7.87;;;3.40;;
11305;SDS011;5708;50.660;6.778;2023-03-16T05:57:18;10.27;;;3.80;;
11305;SDS011;5708;50.660;6.778;2023-03-16T05:59:43;5.73;;;3.10;;
11305;SDS011;5708;50.660;6.778;2023-03-16T06:02:08;7.03;;;3.33;;
11305;SDS011;5708;50.660;6.778;2023-03-16T06:04:34;9.40;;;3.35;;
11305;SDS011;5708;50.660;6.778;2023-03-16T06:07:00;8.93;;;3.10;;
11305;SDS011;5708;50.660;6.778;2023-03-16T06:09:26;6.95;;;3.30;;
11305;SDS011;5708;50.660;6.778;2023-03-16T06:11:51;6.28;;;3.50;;
11305;SDS011;5708;50.660;6.778;2023-03-16T06:14:16;7.60;;;3.67;;
11305;SDS011;5708;50.660;6.778;2023-03-16T06:16:41;7.80;;;3.40;;
11305;SDS011;5708;50.660;6.778;2023-03-16T06:19:07;8.70;;;3.80;;
11305;SDS011;5708;50.660;6.778;2023-03-16T06:21:32;7.07;;;3.80;;
11305;SDS011;5708;50.660;6.778;2023-03-16T06:23:57;6.10;;;3.35;;
11305;SDS011;5708;50.660;6.778;2023-03-16T06:26:22;7.10;;;3.50;;
11305;SDS011;5708;50.660;6.778;2023-03-16T06:28:48;5.82;;;3.22;;
11305;SDS011;5708;50.660;6.778;2023-03-16T06:31:13;6.53;;;3.23;;
11305;SDS011;5708;50.660;6.778;2023-03-16T06:33:38;6.60;;;3.47;;
11305;SDS011;5708;50.660;6.778;2023-03-16T06:36:03;4.90;;;2.93;;
11305;SDS011;5708;50.660;6.778;2023-03-16T06:38:29;6.78;;;3.13;;
11305;SDS011;5708;50.660;6.778;2023-03-16T06:40:54;6.00;;;3.05;;
11305;SDS011;5708;50.660;6.778;2023-03-16T06:43:19;6.07;;;3.10;;
11305;SDS011;5708;50.660;6.778;2023-03-16T06:45:44;8.77;;;3.30;;
11305;SDS011;5708;50.660;6.778;2023-03-16T06:48:10;8.02;;;3.67;;
11305;SDS011;5708;50.660;6.778;2023-03-16T06:50:35;7.53;;;3.47;;
11305;SDS011;5708;50.660;6.778;2023-03-16T06:53:01;5.68;;;3.22;;
11305;SDS011;5708;50.660;6.778;2023-03-16T06:55:26;7.32;;;3.50;;
11305;SDS011;5708;50.660;6.778;2023-03-16T06:57:51;6.33;;;3.17;;
11305;SDS011;5708;50.660;6.778;2023-03-16T07:00:16;8.20;;;3.03;;
11305;SDS011;5708;50.660;6.778;2023-03-16T07:02:42;7.28;;;3.33;;
11305;SDS011;5708;50.660;6.778;2023-03-16T07:05:08;6.05;;;3.15;;
11305;SDS011;5708;50.660;6.778;2023-03-16T07:07:37;9.88;;;3.45;;
11305;SDS011;5708;50.660;6.778;2023-03-16T07:10:02;6.13;;;2.88;;
11305;SDS011;5708;50.660;6.778;2023-03-16T07:12:27;6.35;;;2.60;;
11305;SDS011;5708;50.660;6.778;2023-03-16T07:14:53;7.40;;;2.65;;
11305;SDS011;5708;50.660;6.778;2023-03-16T07:17:18;5.07;;;2.50;;
11305;SDS011;5708;50.660;6.778;2023-03-16T07:19:43;4.70;;;2.73;;
11305;SDS011;5708;50.660;6.778;2023-03-16T07:22:08;6.23;;;2.53;;
11305;SDS011;5708;50.660;6.778;2023-03-16T07:24:34;7.57;;;3.10;;
11305;SDS011;5708;50.660;6.778;2023-03-16T07:26:59;4.78;;;2.70;;
11305;SDS011;5708;50.660;6.778;2023-03-16T07:29:25;5.57;;;2.50;;
11305;SDS011;5708;50.660;6.778;2023-03-16T07:31:51;6.70;;;2.67;;
11305;SDS011;5708;50.660;6.778;2023-03-16T07:34:17;7.35;;;2.40;;
11305;SDS011;5708;50.660;6.778;2023-03-16T07:36:42;5.97;;;2.88;;
11305;SDS011;5708;50.660;6.778;2023-03-16T07:39:08;7.60;;;2.70;;
11305;SDS011;5708;50.660;6.778;2023-03-16T07:41:33;5.03;;;2.50;;
11305;SDS011;5708;50.660;6.778;2023-03-16T07:43:59;5.28;;;3.00;;
11305;SDS011;5708;50.660;6.778;2023-03-16T07:46:24;5.93;;;3.10;;
11305;SDS011;5708;50.660;6.778;2023-03-16T07:48:50;7.57;;;3.17;;
11305;SDS011;5708;50.660;6.778;2023-03-16T07:51:15;5.20;;;2.93;;
11305;SDS011;5708;50.660;6.778;2023-03-16T07:53:40;6.53;;;3.13;;
11305;SDS011;5708;50.660;6.778;2023-03-16T07:56:05;7.37;;;3.07;;
11305;SDS011;5708;50.660;6.778;2023-03-16T07:58:31;6.13;;;2.88;;
11305;SDS011;5708;50.660;6.778;2023-03-16T08:00:57;5.80;;;2.78;;
11305;SDS011;5708;50.660;6.778;2023-03-16T08:03:23;5.90;;;2.95;;
11305;SDS011;5708;50.660;6.778;2023-03-16T08:05:48;7.85;;;3.30;;
11305;SDS011;5708;50.660;6.778;2023-03-16T08:08:13;5.70;;;2.72;;
11305;SDS011;5708;50.660;6.778;2023-03-16T08:10:40;8.35;;;3.25;;
11305;SDS011;5708;50.660;6.778;2023-03-16T08:13:05;6.60;;;2.95;;
11305;SDS011;5708;50.660;6.778;2023-03-16T08:15:30;8.48;;;3.40;;
11305;SDS011;5708;50.660;6.778;2023-03-16T08:17:59;7.72;;;3.10;;
11305;SDS011;5708;50.660;6.778;2023-03-16T08:20:26;6.32;;;3.17;;
11305;SDS011;5708;50.660;6.778;2023-03-16T08:22:52;5.68;;;2.90;;
11305;SDS011;5708;50.660;6.778;2023-03-16T08:25:17;6.95;;;2.88;;
11305;SDS011;5708;50.660;6.778;2023-03-16T08:27:44;4.82;;;2.60;;
11305;SDS011;5708;50.660;6.778;2023-03-16T08:30:10;7.05;;;3.38;;
11305;SDS011;5708;50.660;6.778;2023-03-16T08:32:36;6.07;;;2.80;;
11305;SDS011;5708;50.660;6.778;2023-03-16T08:35:03;6.80;;;2.95;;
11305;SDS011;5708;50.660;6.778;2023-03-16T08:37:28;5.18;;;2.28;;
11305;SDS011;5708;50.660;6.778;2023-03-16T08:39:54;7.23;;;2.80;;
11305;SDS011;5708;50.660;6.778;2023-03-16T08:42:19;7.70;;;2.55;;
11305;SDS011;5708;50.660;6.778;2023-03-16T08:44:45;5.97;;;2.50;;
11305;SDS011;5708;50.660;6.778;2023-03-16T08:47:11;4.70;;;2.40;;
11305;SDS011;5708;50.660;6.778;2023-03-16T08:49:38;6.13;;;2.65;;
11305;SDS011;5708;50.660;6.778;2023-03-16T08:52:03;5.28;;;2.60;;
11305;SDS011;5708;50.660;6.778;2023-03-16T08:54:29;4.35;;;2.42;;
11305;SDS011;5708;50.660;6.778;2023-03-16T08:56:56;5.50;;;2.58;;
11305;SDS011;5708;50.660;6.778;2023-03-16T08:59:21;5.43;;;2.40;;
11305;SDS011;5708;50.660;6.778;2023-03-16T09:01:46;4.50;;;2.40;;
11305;SDS011;5708;50.660;6.778;2023-03-16T09:04:12;4.13;;;2.17;;
11305;SDS011;5708;50.660;6.778;2023-03-16T09:06:37;7.95;;;2.35;;
11305;SDS011;5708;50.660;6.778;2023-03-16T09:09:03;3.85;;;2.08;;
11305;SDS011;5708;50.660;6.778;2023-03-16T09:11:28;5.85;;;2.17;;
11305;SDS011;5708;50.660;6.778;2023-03-16T09:13:57;6.85;;;2.30;;
11305;SDS011;5708;50.660;6.778;2023-03-16T09:16:22;5.00;;;2.30;;
11305;SDS011;5708;50.660;6.778;2023-03-16T09:18:49;6.60;;;1.98;;
11305;SDS011;5708;50.660;6.778;2023-03-16T09:21:15;4.40;;;1.88;;
11305;SDS011;5708;50.660;6.778;2023-03-16T09:23:40;4.88;;;2.22;;
11305;SDS011;5708;50.660;6.778;2023-03-16T09:26:07;7.40;;;2.15;;
11305;SDS011;5708;50.660;6.778;2023-03-16T09:28:33;5.88;;;2.00;;
11305;SDS011;5708;50.660;6.778;2023-03-16T09:30:59;6.63;;;2.15;;
11305;SDS011;5708;50.660;6.778;2023-03-16T09:33:26;7.07;;;2.75;;
11305;SDS011;5708;50.660;6.778;2023-03-16T09:35:52;4.72;;;2.53;;
11305;SDS011;5708;50.660;6.778;2023-03-16T09:38:19;8.15;;;4.45;;
11305;SDS011;5708;50.660;6.778;2023-03-16T09:40:45;7.20;;;3.65;;
11305;SDS011;5708;50.660;6.778;2023-03-16T09:48:35;6.93;;;2.80;;
11305;SDS011;5708;50.660;6.778;2023-03-16T09:51:02;5.90;;;3.25;;
11305;SDS011;5708;50.660;6.778;2023-03-16T09:53:29;6.18;;;2.90;;
11305;SDS011;5708;50.660;6.778;2023-03-16T09:56:06;3.95;;;1.88;;
11305;SDS011;5708;50.660;6.778;2023-03-16T09:58:33;3.80;;;1.63;;
11305;SDS011;5708;50.660;6.778;2023-03-16T10:05:55;4.50;;;1.60;;
11305;SDS011;5708;50.660;6.778;2023-03-16T10:08:22;4.47;;;1.80;;
11305;SDS011;5708;50.660;6.778;2023-03-16T10:13:22;3.03;;;1.60;;
11305;SDS011;5708;50.660;6.778;2023-03-16T10:15:51;6.45;;;1.70;;
11305;SDS011;5708;50.660;6.778;2023-03-16T10:18:23;4.03;;;1.73;;
11305;SDS011;5708;50.660;6.778;2023-03-16T10:20:50;5.80;;;1.38;;
11305;SDS011;5708;50.660;6.778;2023-03-16T10:23:17;3.58;;;1.38;;
11305;SDS011;5708;50.660;6.778;2023-03-16T10:28:12;4.90;;;2.00;;
11305;SDS011;5708;50.660;6.778;2023-03-16T10:30:39;6.43;;;1.88;;
11305;SDS011;5708;50.660;6.778;2023-03-16T10:35:57;3.95;;;1.58;;
11305;SDS011;5708;50.660;6.778;2023-03-16T10:41:02;5.30;;;1.85;;
11305;SDS011;5708;50.660;6.778;2023-03-16T10:43:28;2.88;;;1.42;;
11305;SDS011;5708;50.660;6.778;2023-03-16T10:45:57;3.75;;;1.60;;
11305;SDS011;5708;50.660;6.778;2023-03-16T10:48:23;5.05;;;1.30;;
11305;SDS011;5708;50.660;6.778;2023-03-16T10:50:51;3.25;;;1.35;;
11305;SDS011;5708;50.660;6.778;2023-03-16T10:53:25;8.40;;;1.73;;
11305;SDS011;5708;50.660;6.778;2023-03-16T10:55:55;3.88;;;1.35;;
11305;SDS011;5708;50.660;6.778;2023-03-16T10:58:23;2.95;;;1.10;;
11305;SDS011;5708;50.660;6.778;2023-03-16T11:00:49;7.38;;;2.22;;
11305;SDS011;5708;50.660;6.778;2023-03-16T11:03:28;7.05;;;2.10;;
11305;SDS011;5708;50.660;6.778;2023-03-16T11:06:03;3.65;;;1.73;;
11305;SDS011;5708;50.660;6.778;2023-03-16T11:08:38;5.70;;;2.90;;
11305;SDS011;5708;50.660;6.778;2023-03-16T11:11:09;6.28;;;2.42;;
11305;SDS011;5708;50.660;6.778;2023-03-16T11:13:36;5.15;;;1.30;;
11305;SDS011;5708;50.660;6.778;2023-03-16T11:20:59;5.20;;;1.55;;
11305;SDS011;5708;50.660;6.778;2023-03-16T11:23:31;4.82;;;2.17;;
11305;SDS011;5708;50.660;6.778;2023-03-16T11:25:57;5.50;;;2.50;;
11305;SDS011;5708;50.660;6.778;2023-03-16T11:28:38;6.53;;;3.25;;
11305;SDS011;5708;50.660;6.778;2023-03-16T11:31:09;5.85;;;1.48;;
11305;SDS011;5708;50.660;6.778;2023-03-16T11:33:37;8.23;;;2.80;;
11305;SDS011;5708;50.660;6.778;2023-03-16T11:36:16;7.45;;;3.38;;
11305;SDS011;5708;50.660;6.778;2023-03-16T11:41:11;2.70;;;0.98;;
11305;SDS011;5708;50.660;6.778;2023-03-16T11:43:53;7.13;;;2.75;;
11305;SDS011;5708;50.660;6.778;2023-03-16T11:51:38;3.55;;;1.58;;
11305;SDS011;5708;50.660;6.778;2023-03-16T11:54:09;12.80;;;4.85;;
11305;SDS011;5708;50.660;6.778;2023-03-16T12:17:28;4.30;;;0.95;;
11305;SDS011;5708;50.660;6.778;2023-03-16T12:19:56;3.85;;;0.85;;
11305;SDS011;5708;50.660;6.778;2023-03-16T12:22:36;2.83;;;0.60;;
11305;SDS011;5708;50.660;6.778;2023-03-16T12:25:03;2.22;;;0.60;;
11305;SDS011;5708;50.660;6.778;2023-03-16T12:27:37;1.55;;;0.60;;
11305;SDS011;5708;50.660;6.778;2023-03-16T12:40:32;2.50;;;0.70;;
11305;SDS011;5708;50.660;6.778;2023-03-16T12:50:34;2.47;;;1.00;;
11305;SDS011;5708;50.660;6.778;2023-03-16T12:53:23;2.13;;;0.70;;
11305;SDS011;5708;50.660;6.778;2023-03-16T12:55:48;1.48;;;0.60;;
11305;SDS011;5708;50.660;6.778;2023-03-16T12:58:14;1.90;;;0.88;;
11305;SDS011;5708;50.660;6.778;2023-03-16T13:00:41;3.50;;;0.82;;
11305;SDS011;5708;50.660;6.778;2023-03-16T13:03:14;2.85;;;0.80;;
11305;SDS011;5708;50.660;6.778;2023-03-16T13:05:44;0.93;;;0.55;;
11305;SDS011;5708;50.660;6.778;2023-03-16T13:08:11;3.17;;;0.77;;
11305;SDS011;5708;50.660;6.778;2023-03-16T13:10:37;1.98;;;0.70;;
11305;SDS011;5708;50.660;6.778;2023-03-16T13:13:07;2.47;;;0.80;;
11305;SDS011;5708;50.660;6.778;2023-03-16T13:15:32;4.47;;;0.98;;
11305;SDS011;5708;50.660;6.778;2023-03-16T13:18:03;3.13;;;0.70;;
11305;SDS011;5708;50.660;6.778;2023-03-16T13:20:29;5.40;;;1.23;;
11305;SDS011;5708;50.660;6.778;2023-03-16T13:25:40;2.63;;;0.73;;
11305;SDS011;5708;50.660;6.778;2023-03-16T13:28:13;2.97;;;0.80;;
11305;SDS011;5708;50.660;6.778;2023-03-16T13:30:46;2.97;;;0.98;;
11305;SDS011;5708;50.660;6.778;2023-03-16T13:35:44;2.10;;;0.63;;
11305;SDS011;5708;50.660;6.778;2023-03-16T13:38:13;3.92;;;0.80;;
11305;SDS011;5708;50.660;6.778;2023-03-16T13:40:47;1.85;;;0.80;;
11305;SDS011;5708;50.660;6.778;2023-03-16T13:43:14;4.20;;;1.00;;
11305;SDS011;5708;50.660;6.778;2023-03-16T13:45:39;2.72;;;0.90;;
11305;SDS011;5708;50.660;6.778;2023-03-16T13:48:05;1.92;;;0.77;;
11305;SDS011;5708;50.660;6.778;2023-03-16T13:50:34;2.58;;;0.80;;
11305;SDS011;5708;50.660;6.778;2023-03-16T13:53:04;3.67;;;0.90;;
11305;SDS011;5708;50.660;6.778;2023-03-16T13:55:34;1.73;;;0.65;;
11305;SDS011;5708;50.660;6.778;2023-03-16T13:58:01;2.78;;;0.95;;
11305;SDS011;5708;50.660;6.778;2023-03-16T14:00:29;2.30;;;0.88;;
11305;SDS011;5708;50.660;6.778;2023-03-16T14:02:57;2.97;;;0.80;;
11305;SDS011;5708;50.660;6.778;2023-03-16T14:07:52;3.22;;;0.80;;
11305;SDS011;5708;50.660;6.778;2023-03-16T14:10:17;2.50;;;0.88;;
11305;SDS011;5708;50.660;6.778;2023-03-16T14:12:57;2.08;;;0.70;;
11305;SDS011;5708;50.660;6.778;2023-03-16T14:15:30;2.28;;;0.70;;
11305;SDS011;5708;50.660;6.778;2023-03-16T14:18:00;4.00;;;0.90;;
11305;SDS011;5708;50.660;6.778;2023-03-16T14:20:33;2.65;;;0.90;;
11305;SDS011;5708;50.660;6.778;2023-03-16T14:22:59;2.47;;;0.75;;
11305;SDS011;5708;50.660;6.778;2023-03-16T14:25:25;3.80;;;0.85;;
11305;SDS011;5708;50.660;6.778;2023-03-16T14:27:58;3.47;;;1.02;;
11305;SDS011;5708;50.660;6.778;2023-03-16T14:30:25;1.92;;;0.70;;
11305;SDS011;5708;50.660;6.778;2023-03-16T14:35:27;4.18;;;0.75;;
11305;SDS011;5708;50.660;6.778;2023-03-16T14:37:53;3.58;;;0.80;;
11305;SDS011;5708;50.660;6.778;2023-03-16T14:42:49;3.75;;;0.70;;
11305;SDS011;5708;50.660;6.778;2023-03-16T14:45:15;3.58;;;1.00;;
11305;SDS011;5708;50.660;6.778;2023-03-16T14:47:42;2.67;;;0.65;;
11305;SDS011;5708;50.660;6.778;2023-03-16T14:50:11;1.75;;;0.70;;
11305;SDS011;5708;50.660;6.778;2023-03-16T14:52:37;1.80;;;0.70;;
11305;SDS011;5708;50.660;6.778;2023-03-16T14:55:11;2.35;;;0.70;;
11305;SDS011;5708;50.660;6.778;2023-03-16T14:57:38;3.13;;;0.80;;
11305;SDS011;5708;50.660;6.778;2023-03-16T15:00:03;2.88;;;0.70;;
11305;SDS011;5708;50.660;6.778;2023-03-16T15:02:29;1.83;;;0.80;;
11305;SDS011;5708;50.660;6.778;2023-03-16T15:04:56;3.33;;;0.90;;
11305;SDS011;5708;50.660;6.778;2023-03-16T15:09:50;4.05;;;0.77;;
11305;SDS011;5708;50.660;6.778;2023-03-16T15:12:17;2.22;;;0.80;;
11305;SDS011;5708;50.660;6.778;2023-03-16T15:14:46;3.15;;;0.70;;
11305;SDS011;5708;50.660;6.778;2023-03-16T15:17:30;3.00;;;1.02;;
11305;SDS011;5708;50.660;6.778;2023-03-16T15:19:56;3.22;;;0.95;;
11305;SDS011;5708;50.660;6.778;2023-03-16T15:22:28;1.75;;;0.80;;
11305;SDS011;5708;50.660;6.778;2023-03-16T15:24:54;2.22;;;0.82;;
11305;SDS011;5708;50.660;6.778;2023-03-16T15:27:22;4.65;;;1.20;;
11305;SDS011;5708;50.660;6.778;2023-03-16T15:29:49;3.72;;;0.95;;
11305;SDS011;5708;50.660;6.778;2023-03-16T15:32:14;2.63;;;0.70;;
11305;SDS011;5708;50.660;6.778;2023-03-16T15:34:40;1.27;;;0.80;;
11305;SDS011;5708;50.660;6.778;2023-03-16T15:37:09;1.40;;;0.80;;
11305;SDS011;5708;50.660;6.778;2023-03-16T15:39:35;4.57;;;1.83;;
11305;SDS011;5708;50.660;6.778;2023-03-16T15:42:01;6.05;;;2.00;;
11305;SDS011;5708;50.660;6.778;2023-03-16T15:44:26;6.10;;;3.07;;
11305;SDS011;5708;50.660;6.778;2023-03-16T15:46:51;6.07;;;2.83;;
11305;SDS011;5708;50.660;6.778;2023-03-16T15:49:19;12.27;;;6.78;;
11305;SDS011;5708;50.660;6.778;2023-03-16T15:51:44;6.82;;;3.90;;
11305;SDS011;5708;50.660;6.778;2023-03-16T15:54:10;12.95;;;5.63;;
11305;SDS011;5708;50.660;6.778;2023-03-16T15:56:37;3.03;;;1.50;;
11305;SDS011;5708;50.660;6.778;2023-03-16T15:59:04;8.18;;;3.65;;
11305;SDS011;5708;50.660;6.778;2023-03-16T16:01:31;5.60;;;2.35;;
11305;SDS011;5708;50.660;6.778;2023-03-16T16:04:02;3.22;;;1.38;;
11305;SDS011;5708;50.660;6.778;2023-03-16T16:06:28;3.25;;;1.98;;
11305;SDS011;5708;50.660;6.778;2023-03-16T16:08:54;3.20;;;1.40;;
11305;SDS011;5708;50.660;6.778;2023-03-16T16:11:20;3.78;;;1.30;;
11305;SDS011;5708;50.660;6.778;2023-03-16T16:13:47;4.75;;;1.40;;
11305;SDS011;5708;50.660;6.778;2023-03-16T16:16:13;2.83;;;1.30;;
11305;SDS011;5708;50.660;6.778;2023-03-16T16:18:39;3.55;;;1.60;;
11305;SDS011;5708;50.660;6.778;2023-03-16T16:21:05;4.15;;;1.27;;
11305;SDS011;5708;50.660;6.778;2023-03-16T16:23:32;7.18;;;2.08;;
11305;SDS011;5708;50.660;6.778;2023-03-16T16:26:02;4.88;;;1.70;;
11305;SDS011;5708;50.660;6.778;2023-03-16T16:28:29;6.93;;;2.13;;
11305;SDS011;5708;50.660;6.778;2023-03-16T16:30:55;3.55;;;1.60;;
11305;SDS011;5708;50.660;6.778;2023-03-16T16:33:21;4.18;;;1.55;;